Airfield :
LOGIN :

Register | Disclaimer

   EN    FR    IT 

 










Legend :    VFR   Marginal VFR   IFR   Intensive IFR   Very Intensive IFR
Visi :
Ceiling :
>= 8 km
>= 3000ft
5 to 8 km
1000 to 3000 ft
1500m to 5 km
500 to 1000 ft
800 to 1500m
200 to 500 ft
< 800m
< 200 ft
Symbols :   Thunderstorms  Fog  Heavy snow  Heavy precipitations  Wind > 20 kt
SIGMETs :     Misc.  Thunderstorms  Icing  Turbulence  Mountain Waves  Volcanic Ashes






- Airport Elevation : 132 ft


EGXE - RAF Leeming

CURRENT METAR :
  • 271820Z 18006KT 9999 FEW030 BKN200 04/01 Q0990 NOSIG RMK BLU BLU

EXPIRED METARs :
  • 271750Z 16008KT 9999 FEW020 BKN200 04/01 Q0991 NOSIG RMK BLU BLU
  • 271720Z 16008KT 9999 FEW020 BKN200 05/01 Q0991 NOSIG RMK BLU BLU
  • 271650Z 16007KT 9999 FEW020 BKN200 04/01 Q0992 NOSIG RMK BLU BLU
  • 271620Z 11004KT 9999 FEW020 BKN200 05/02 Q0992 NOSIG RMK BLU BLU
  • 271550Z 17007KT 9999 FEW020 BKN200 06/02 Q0993 NOSIG RMK BLU BLU

TAF TAF EGXE
Valid from the 27 at 15:00 until the 27 at 20:00 UTC


271320Z 2715/2720 22013KT 9999 FEW020



MET'MAP, your aeronautical weather chart ! - Copyright ORBIFLY December 2007 - Disclaimer

ORBIFLY MET'MAP TEAM :

Programming & Development : Alexandra Zaïnal
Concept & original design : Baudouin d'Aumeries
Assistance for programming : Marc-Olivier Méhu
Technical & hardware support : Manuel Goepfert

Contact : metmap@orbifly.com




SOURCES & CREDITS :

   NOAA